createdAt,value
2018-07-15T00:00:10.467Z,100040.66
2018-07-15T00:02:36.436Z,100047.91
2018-07-15T00:05:02.415Z,100046.25
2018-07-15T00:07:28.379Z,100045.93
2018-07-15T00:09:54.387Z,100043.38
2018-07-15T00:12:20.355Z,100041.75
2018-07-15T00:14:46.319Z,100044.66
2018-07-15T00:17:12.256Z,100043.27
2018-07-15T00:19:38.224Z,100049.88
2018-07-15T00:22:04.170Z,100041.31
2018-07-15T00:24:30.130Z,100040.16
2018-07-15T00:26:56.065Z,100035.39
2018-07-15T00:29:22.007Z,100035.06
2018-07-15T00:31:47.984Z,100035.28
2018-07-15T00:34:13.952Z,100032.22
2018-07-15T00:36:39.934Z,100039.16
2018-07-15T00:39:05.869Z,100032.38
2018-07-15T00:41:31.861Z,100034.30
2018-07-15T00:43:57.798Z,100032.05
2018-07-15T00:46:23.765Z,100036.07
2018-07-15T00:48:49.756Z,100040.67
2018-07-15T00:51:15.728Z,100038.34
2018-07-15T00:53:41.687Z,100035.55
2018-07-15T00:56:07.679Z,100037.33
2018-07-15T00:58:33.637Z,100033.27
2018-07-15T01:00:59.592Z,100036.94
2018-07-15T01:03:25.548Z,100030.77
2018-07-15T01:05:51.500Z,100029.22
2018-07-15T01:08:17.446Z,100021.39
2018-07-15T01:10:43.385Z,100031.22
2018-07-15T01:13:09.347Z,100031.56
2018-07-15T01:15:35.314Z,100037.53
2018-07-15T01:18:01.268Z,100031.16
2018-07-15T01:20:27.259Z,100027.44
2018-07-15T01:22:53.231Z,100023.00
2018-07-15T01:25:19.217Z,100026.59
2018-07-15T01:27:45.179Z,100023.86
2018-07-15T01:30:11.123Z,100024.41
2018-07-15T01:32:37.074Z,100024.88
2018-07-15T01:35:03.009Z,100025.72
2018-07-15T01:37:28.960Z,100019.27
2018-07-15T01:39:54.924Z,100017.56
2018-07-15T01:42:20.869Z,100021.83
2018-07-15T01:44:46.825Z,100018.45
2018-07-15T01:47:12.769Z,100019.56
2018-07-15T01:49:38.720Z,100019.85
2018-07-15T01:52:04.650Z,100014.87
2018-07-15T01:54:30.593Z,100006.94
2018-07-15T01:56:56.579Z,100007.66
2018-07-15T01:59:22.645Z,100001.25
2018-07-15T02:01:48.629Z,100005.25
2018-07-15T02:04:14.608Z,100011.81
2018-07-15T02:06:40.570Z,100011.42
2018-07-15T02:09:06.501Z,100010.67
2018-07-15T02:11:32.455Z,100011.20
2018-07-15T02:13:58.398Z,100013.54
2018-07-15T02:16:24.370Z,100009.27
2018-07-15T02:18:50.342Z,100010.09
2018-07-15T02:21:16.299Z,100009.44
2018-07-15T02:23:42.287Z,100015.62
2018-07-15T02:26:08.257Z,100006.37
2018-07-15T02:28:34.231Z,100015.48
2018-07-15T02:31:00.188Z,100009.61
2018-07-15T02:33:26.152Z,100012.67
2018-07-15T02:35:52.125Z,100013.26
2018-07-15T02:38:18.122Z,100001.22
2018-07-15T02:40:44.089Z,100000.77
2018-07-15T02:43:10.040Z,100005.00
2018-07-15T02:45:36.018Z,100002.00
2018-07-15T02:48:01.964Z,100001.79
2018-07-15T02:50:28.004Z,99997.38
2018-07-15T02:52:54.019Z,99994.05
2018-07-15T02:55:19.989Z,99989.66
2018-07-15T02:57:45.980Z,99985.91
2018-07-15T03:00:12.150Z,99988.67
2018-07-15T03:02:38.124Z,99988.59
2018-07-15T03:05:04.161Z,99989.45
2018-07-15T03:07:30.154Z,99990.52
2018-07-15T03:09:56.170Z,99984.98
2018-07-15T03:12:22.126Z,99984.59
2018-07-15T03:14:48.112Z,99984.16
2018-07-15T03:17:14.081Z,99987.66
2018-07-15T03:19:40.029Z,99994.91
2018-07-15T03:22:05.996Z,99992.53
2018-07-15T03:24:31.997Z,99994.70
2018-07-15T03:26:57.964Z,99989.56
2018-07-15T03:29:23.928Z,99988.89
2018-07-15T03:31:49.876Z,99989.78
2018-07-15T03:34:15.842Z,99994.09
2018-07-15T03:36:41.791Z,99992.98
2018-07-15T03:39:07.781Z,99998.70
2018-07-15T03:41:33.737Z,100003.19
2018-07-15T03:43:59.732Z,100000.49
2018-07-15T03:46:25.700Z,100001.92
2018-07-15T03:48:51.708Z,99998.36
2018-07-15T03:51:17.658Z,99993.93
2018-07-15T03:53:43.632Z,99992.52
2018-07-15T03:56:09.619Z,99995.41
2018-07-15T03:58:35.625Z,99994.16
2018-07-15T04:01:01.601Z,99995.52
2018-07-15T04:03:27.568Z,99992.13
2018-07-15T04:05:53.540Z,99989.98
2018-07-15T04:08:19.522Z,99983.87
2018-07-15T04:10:45.481Z,99981.91
2018-07-15T04:13:11.453Z,99992.36
2018-07-15T04:15:37.433Z,99994.36
2018-07-15T04:18:03.399Z,99993.11
2018-07-15T04:20:29.358Z,99988.89
2018-07-15T04:22:55.333Z,99994.80
2018-07-15T04:25:21.294Z,100004.26
2018-07-15T04:27:47.266Z,100003.75
2018-07-15T04:30:13.235Z,100002.66
2018-07-15T04:32:39.189Z,99996.55
2018-07-15T04:35:05.131Z,99994.77
2018-07-15T04:37:31.101Z,99988.56
2018-07-15T04:39:57.032Z,99996.66
2018-07-15T04:42:22.970Z,100002.80
2018-07-15T04:47:21.356Z,100008.47
2018-07-15T04:49:47.325Z,100012.23
2018-07-15T04:52:13.275Z,100018.94
2018-07-15T04:54:39.323Z,100014.54
2018-07-15T04:57:05.317Z,100022.66
2018-07-15T04:59:31.270Z,100021.56
2018-07-15T05:01:57.302Z,100023.50
2018-07-15T05:04:23.215Z,100026.11
2018-07-15T05:06:49.178Z,100024.08
2018-07-15T05:09:15.127Z,100022.84
2018-07-15T05:11:41.081Z,100014.30
2018-07-15T05:14:07.054Z,100029.41
2018-07-15T05:16:33.012Z,100025.66
2018-07-15T05:18:58.981Z,100028.95
2018-07-15T05:21:24.933Z,100029.45
2018-07-15T05:23:50.893Z,100032.63
2018-07-15T05:26:16.864Z,100035.56
2018-07-15T05:28:42.835Z,100043.77
2018-07-15T05:31:08.786Z,100044.26
2018-07-15T05:33:34.741Z,100048.63
2018-07-15T05:36:00.688Z,100046.33
2018-07-15T05:38:26.685Z,100041.20
2018-07-15T05:40:52.624Z,100045.83
2018-07-15T05:43:18.592Z,100044.36
2018-07-15T05:45:44.548Z,100045.76
2018-07-15T05:48:10.510Z,100047.73
2018-07-15T05:50:36.497Z,100050.76
2018-07-15T05:53:02.475Z,100045.38
2018-07-15T05:55:28.438Z,100049.39
2018-07-15T05:57:54.420Z,100056.95
2018-07-15T06:00:20.400Z,100054.23
2018-07-15T06:02:46.402Z,100056.30
2018-07-15T06:05:12.385Z,100051.61
2018-07-15T06:07:38.428Z,100049.59
2018-07-15T06:10:04.459Z,100050.49
2018-07-15T06:12:31.506Z,100050.05
2018-07-15T06:14:57.476Z,100054.19
2018-07-15T06:17:23.450Z,100058.75
2018-07-15T06:19:49.436Z,100059.00
2018-07-15T06:22:15.541Z,100059.33
2018-07-15T06:24:41.465Z,100062.56
2018-07-15T06:27:07.443Z,100057.73
2018-07-15T06:29:33.572Z,100056.53
2018-07-15T06:31:59.544Z,100060.08
2018-07-15T06:34:25.491Z,100057.66
2018-07-15T06:36:51.471Z,100057.98
2018-07-15T06:39:17.462Z,100059.88
2018-07-15T06:41:43.421Z,100061.47
2018-07-15T06:44:09.402Z,100057.94
2018-07-15T06:46:35.362Z,100058.53
2018-07-15T06:49:01.310Z,100054.25
2018-07-15T06:51:27.273Z,100049.43
2018-07-15T06:53:53.289Z,100052.38
2018-07-15T06:56:19.222Z,100054.80
2018-07-15T06:58:45.196Z,100049.14
2018-07-15T07:01:11.162Z,100051.06
2018-07-15T07:06:09.033Z,100059.14
2018-07-15T07:08:34.994Z,100059.78
2018-07-15T07:11:01.026Z,100054.52
2018-07-15T07:13:27.061Z,100057.86
2018-07-15T07:15:53.065Z,100048.45
2018-07-15T07:18:19.061Z,100051.38
2018-07-15T07:20:45.021Z,100051.90
2018-07-15T07:23:11.002Z,100051.42
2018-07-15T07:25:36.982Z,100050.98
2018-07-15T07:28:02.945Z,100047.22
2018-07-15T07:30:28.927Z,100047.50
2018-07-15T07:32:54.888Z,100043.38
2018-07-15T07:35:20.918Z,100046.47
2018-07-15T07:37:46.896Z,100044.43
2018-07-15T07:40:12.966Z,100043.05
2018-07-15T07:42:38.955Z,100045.42
2018-07-15T07:47:36.478Z,100044.33
2018-07-15T07:50:02.483Z,100046.84
2018-07-15T07:52:28.443Z,100041.31
2018-07-15T07:54:54.404Z,100048.72
2018-07-15T07:57:21.497Z,100043.50
2018-07-15T07:59:47.494Z,100039.91
2018-07-15T08:02:13.499Z,100047.02
2018-07-15T08:04:39.455Z,100042.08
2018-07-15T08:07:05.475Z,100054.65
2018-07-15T08:09:31.484Z,100056.91
2018-07-15T08:11:57.511Z,100051.37
2018-07-15T08:14:23.478Z,100047.02
2018-07-15T08:16:49.425Z,100033.01
2018-07-15T08:19:15.492Z,100038.62
2018-07-15T08:21:41.486Z,100035.98
2018-07-15T08:24:07.537Z,100029.19
2018-07-15T08:26:33.532Z,100035.98
2018-07-15T08:28:59.480Z,100031.74
2018-07-15T08:31:25.474Z,100036.92
2018-07-15T08:33:51.456Z,100035.98
2018-07-15T08:36:17.435Z,100030.19
2018-07-15T08:38:43.521Z,100028.48
2018-07-15T08:41:09.565Z,100021.73
2018-07-15T08:43:35.490Z,100028.66
2018-07-15T08:46:01.568Z,100021.36
2018-07-15T08:48:27.577Z,100025.97
2018-07-15T08:50:53.541Z,100025.27
2018-07-15T08:53:19.521Z,100027.91
2018-07-15T08:55:45.488Z,100017.91
2018-07-15T08:58:11.460Z,100021.79
2018-07-15T09:00:37.404Z,100019.67
2018-07-15T09:03:03.361Z,100017.31
2018-07-15T09:05:29.345Z,100013.45
2018-07-15T09:07:55.311Z,100010.50
2018-07-15T09:10:21.279Z,100015.23
2018-07-15T09:12:47.247Z,100006.07
2018-07-15T09:15:13.238Z,100006.37
2018-07-15T09:17:39.203Z,100014.33
2018-07-15T09:20:05.159Z,100011.75
2018-07-15T09:22:31.138Z,100009.64
2018-07-15T09:24:57.101Z,100010.93
2018-07-15T09:27:23.075Z,100006.70
2018-07-15T09:29:49.040Z,100002.66
2018-07-15T09:32:15.020Z,99996.09
2018-07-15T09:34:41.061Z,99990.92
2018-07-15T09:37:07.049Z,99993.77
2018-07-15T09:39:33.066Z,99992.69
2018-07-15T09:41:59.051Z,99990.94
2018-07-15T09:44:25.040Z,99993.06
2018-07-15T09:46:51.065Z,99985.97
2018-07-15T09:49:17.026Z,99990.09
2018-07-15T09:51:43.190Z,99990.86
2018-07-15T09:54:09.172Z,99987.03
2018-07-15T09:56:35.138Z,99987.36
2018-07-15T09:59:01.106Z,99979.86
2018-07-15T10:01:27.071Z,99972.25
2018-07-15T10:03:53.024Z,99977.77
2018-07-15T10:06:18.983Z,99975.26
2018-07-15T10:08:44.997Z,99972.24
2018-07-15T10:11:10.965Z,99972.45
2018-07-15T10:13:36.983Z,99969.29
2018-07-15T10:16:02.982Z,99976.11
2018-07-15T10:18:28.953Z,99969.16
2018-07-15T10:20:54.910Z,99963.54
2018-07-15T10:23:20.879Z,99961.52
2018-07-15T10:25:46.854Z,99960.22
2018-07-15T10:28:12.946Z,99954.83
2018-07-15T10:30:38.935Z,99950.05
2018-07-15T10:33:05.001Z,99946.00
2018-07-15T10:35:30.919Z,99947.78
2018-07-15T10:37:56.916Z,99940.34
2018-07-15T10:40:22.984Z,99938.25
2018-07-15T10:42:48.968Z,99938.91
2018-07-15T10:45:14.907Z,99938.91
2018-07-15T10:47:40.889Z,99932.64
2018-07-15T10:50:06.871Z,99939.23
2018-07-15T10:52:32.902Z,99933.47
2018-07-15T10:54:58.878Z,99932.66
2018-07-15T10:57:24.839Z,99928.31
2018-07-15T10:59:52.821Z,99921.52
2018-07-15T11:02:18.805Z,99921.50
2018-07-15T11:04:46.876Z,99916.45
2018-07-15T11:07:12.934Z,99921.73
2018-07-15T11:09:38.966Z,99920.22
2018-07-15T11:12:05.071Z,99917.64
2018-07-15T11:14:31.032Z,99911.92
2018-07-15T11:16:57.029Z,99903.11
2018-07-15T11:19:23.029Z,99909.40
2018-07-15T11:21:49.020Z,99901.30
2018-07-15T11:24:15.001Z,99892.83
2018-07-15T11:26:40.955Z,99903.28
2018-07-15T11:29:07.019Z,99898.88
2018-07-15T11:31:33.049Z,99897.11
2018-07-15T11:33:59.034Z,99892.06
2018-07-15T11:36:25.027Z,99893.05
2018-07-15T11:38:51.755Z,99893.97
2018-07-15T11:41:17.737Z,99882.33
2018-07-15T11:43:43.729Z,99881.48
2018-07-15T11:46:09.675Z,99878.14
2018-07-15T11:48:35.637Z,99880.80
2018-07-15T11:51:02.645Z,99877.17
2018-07-15T11:53:28.660Z,99875.95
2018-07-15T11:55:54.620Z,99870.11
2018-07-15T11:58:20.660Z,99870.16
2018-07-15T12:00:46.625Z,99856.77
2018-07-15T12:03:12.775Z,99859.67
2018-07-15T12:05:38.773Z,99857.98
2018-07-15T12:08:05.025Z,99856.44
2018-07-15T12:10:31.034Z,99852.57
2018-07-15T12:12:57.042Z,99849.16
2018-07-15T12:15:23.012Z,99848.70
2018-07-15T12:17:48.999Z,99848.34
2018-07-15T12:20:14.982Z,99843.70
2018-07-15T12:22:40.975Z,99849.15
2018-07-15T12:25:07.051Z,99839.13
2018-07-15T12:27:33.950Z,99836.67
2018-07-15T12:29:59.989Z,99833.11
2018-07-15T12:39:42.201Z,99837.75
2018-07-15T12:42:08.279Z,99837.73
2018-07-15T12:44:34.481Z,99831.14
2018-07-15T12:47:00.503Z,99830.36
2018-07-15T12:49:27.429Z,99825.53
2018-07-15T12:51:53.557Z,99827.55
2018-07-15T12:54:19.669Z,99826.49
2018-07-15T12:59:16.869Z,99814.65
2018-07-15T13:01:42.942Z,99817.92
2018-07-15T13:04:09.063Z,99815.66
2018-07-15T13:06:35.270Z,99805.61
2018-07-15T13:09:01.392Z,99812.30
2018-07-15T13:11:27.443Z,99805.05
2018-07-15T13:13:53.521Z,99806.98
2018-07-15T13:16:19.662Z,99798.17
2018-07-15T13:18:45.771Z,99801.45
2018-07-15T13:21:14.873Z,99803.31
2018-07-15T13:23:41.042Z,99803.46
2018-07-15T13:26:07.165Z,99799.97
2018-07-15T13:28:33.209Z,99799.40
2018-07-15T13:30:59.303Z,99799.83
2018-07-15T13:33:25.376Z,99798.62
2018-07-15T13:35:53.418Z,99799.84
2018-07-15T13:40:51.913Z,99792.22
2018-07-15T13:45:52.843Z,99782.70
2018-07-15T13:48:19.889Z,99781.19
2018-07-15T13:53:23.163Z,99782.72
2018-07-15T13:55:50.570Z,99771.72
2018-07-15T13:58:16.705Z,99777.79
2018-07-15T14:05:52.708Z,99780.59
2018-07-15T14:08:20.665Z,99781.36
2018-07-15T14:10:50.364Z,99772.19
2018-07-15T14:13:16.617Z,99766.05
2018-07-15T14:15:42.805Z,99764.37
2018-07-15T14:18:58.607Z,99769.42
2018-07-15T14:23:57.778Z,99765.55
2018-07-15T14:26:24.696Z,99761.96
2018-07-15T14:28:52.869Z,99751.56
2018-07-15T14:31:22.101Z,99752.80
2018-07-15T14:33:48.308Z,99753.39
2018-07-15T14:36:19.243Z,99751.80
2018-07-15T14:38:46.610Z,99750.28
2018-07-15T14:41:16.662Z,99751.55
2018-07-15T14:50:29.931Z,99737.26
2018-07-15T14:52:59.253Z,99735.43
2018-07-15T14:57:57.022Z,99724.98
2018-07-15T15:03:04.659Z,99739.21
2018-07-15T15:05:31.343Z,99736.03
2018-07-15T15:08:01.764Z,99738.09
2018-07-15T15:10:33.570Z,99747.40
2018-07-15T15:13:04.853Z,99740.34
2018-07-15T15:15:31.833Z,99747.03
2018-07-15T15:18:03.784Z,99737.48
2018-07-15T15:23:10.696Z,99738.38
2018-07-15T15:25:37.023Z,99732.62
2018-07-15T15:28:04.106Z,99732.62
2018-07-15T15:30:30.254Z,99734.51
2018-07-15T15:32:56.958Z,99733.91
2018-07-15T15:35:22.972Z,99729.59
2018-07-15T15:37:49.035Z,99733.91
2018-07-15T15:42:55.897Z,99727.46
2018-07-15T15:45:21.934Z,99725.05
2018-07-15T15:47:48.002Z,99719.28
2018-07-15T15:50:14.074Z,99720.49
2018-07-15T15:52:40.064Z,99716.79
2018-07-15T15:55:06.041Z,99720.89
2018-07-15T15:57:32.875Z,99724.88
2018-07-15T15:59:58.946Z,99720.13
2018-07-15T16:02:24.966Z,99722.86
2018-07-15T16:04:50.985Z,99723.39
2018-07-15T16:07:18.018Z,99719.36
2018-07-15T16:09:44.034Z,99719.52
2018-07-15T16:12:10.077Z,99716.23
2018-07-15T16:14:36.056Z,99713.77
2018-07-15T16:17:02.028Z,99711.47
2018-07-15T16:19:28.102Z,99708.89
2018-07-15T16:21:54.105Z,99711.55
2018-07-15T16:24:20.117Z,99711.11
2018-07-15T16:26:46.284Z,99702.53
2018-07-15T16:29:13.412Z,99702.69
2018-07-15T16:31:41.107Z,99701.32
2018-07-15T16:34:07.304Z,99705.72
2018-07-15T16:45:48.975Z,99699.88
2018-07-15T16:48:15.710Z,99697.98
2018-07-15T16:50:41.948Z,99699.43
2018-07-15T16:53:08.088Z,99703.53
2018-07-15T16:55:35.261Z,99697.14
2018-07-15T16:58:02.148Z,99694.64
2018-07-15T17:00:35.694Z,99695.17
2018-07-15T17:08:11.540Z,99703.69
2018-07-15T17:13:10.261Z,99696.94
2018-07-15T17:18:06.796Z,99697.91
2018-07-15T17:20:34.754Z,99704.34
2018-07-15T17:25:31.105Z,99698.91
2018-07-15T17:27:57.151Z,99691.70
2018-07-15T17:30:23.158Z,99697.09
2018-07-15T17:35:21.963Z,99696.61
2018-07-15T17:40:22.938Z,99693.15
2018-07-15T17:42:49.065Z,99688.44
2018-07-15T17:50:16.348Z,99696.61
2018-07-15T17:52:43.845Z,99697.25
2018-07-15T17:55:10.032Z,99695.41
2018-07-15T17:57:36.101Z,99699.19
2018-07-15T18:00:02.194Z,99692.35
2018-07-15T18:05:02.922Z,99696.48
2018-07-15T18:07:31.194Z,99699.27
2018-07-15T18:09:57.325Z,99700.88
2018-07-15T18:28:01.878Z,99709.97
2018-07-15T18:30:32.754Z,99706.34
2018-07-15T18:33:04.719Z,99707.55
2018-07-15T18:35:31.805Z,99707.33
2018-07-15T18:37:57.879Z,99715.14
2018-07-15T18:40:24.663Z,99722.96
2018-07-15T18:42:50.757Z,99724.65
2018-07-15T18:45:18.276Z,99719.92
2018-07-15T18:47:45.612Z,99718.89
2018-07-15T18:50:12.311Z,99720.07
2018-07-15T18:52:38.849Z,99721.75
2018-07-15T18:55:04.999Z,99728.75
2018-07-15T18:57:31.087Z,99734.89
2018-07-15T18:59:59.205Z,99738.94
2018-07-15T19:02:26.914Z,99743.17
2018-07-15T19:04:55.603Z,99743.17
2018-07-15T19:07:21.844Z,99749.75
2018-07-15T19:09:51.108Z,99754.64
2018-07-15T19:12:17.129Z,99757.94
2018-07-15T19:17:15.814Z,99764.09
2018-07-15T19:22:13.947Z,99767.17
2018-07-15T19:24:45.216Z,99771.52
2018-07-15T19:27:14.476Z,99776.91
2018-07-15T19:34:45.864Z,99780.50
2018-07-15T19:37:12.019Z,99777.92
2018-07-15T19:39:38.816Z,99786.56
2018-07-15T19:42:05.046Z,99788.66
2018-07-15T19:47:07.915Z,99790.44
2018-07-15T19:49:34.100Z,99788.19
2018-07-15T19:52:00.211Z,99789.88
2018-07-15T19:54:28.550Z,99791.89
2018-07-15T19:56:54.708Z,99792.83
2018-07-15T19:59:20.997Z,99794.33
2018-07-15T20:04:19.843Z,99801.73
2018-07-15T20:06:46.017Z,99804.61
2018-07-15T20:09:12.061Z,99808.83
2018-07-15T20:11:38.623Z,99808.94
2018-07-15T20:14:05.365Z,99808.42
2018-07-15T20:16:31.464Z,99806.30
2018-07-15T20:18:58.260Z,99807.95
2018-07-15T20:21:24.376Z,99811.44
2018-07-15T20:23:50.629Z,99809.70
2018-07-15T20:26:16.744Z,99813.83
2018-07-15T20:28:43.380Z,99820.56
2018-07-15T20:31:10.376Z,99817.23
2018-07-15T20:33:37.284Z,99817.10
2018-07-15T20:36:07.253Z,99817.53
2018-07-15T20:38:34.203Z,99816.50
2018-07-15T20:43:33.365Z,99810.50
2018-07-15T20:45:59.509Z,99809.55
2018-07-15T20:48:25.561Z,99809.53
2018-07-15T20:50:52.921Z,99807.61
2018-07-15T20:53:20.085Z,99815.52
2018-07-15T20:55:46.246Z,99819.10
2018-07-15T20:58:12.448Z,99819.05
2018-07-15T21:00:38.705Z,99812.66
2018-07-15T21:03:05.917Z,99812.25
2018-07-15T21:05:32.147Z,99811.80
2018-07-15T21:07:59.051Z,99804.55
2018-07-15T21:10:28.971Z,99809.53
2018-07-15T21:12:55.169Z,99808.45
2018-07-15T21:15:21.236Z,99805.14
2018-07-15T21:17:47.516Z,99803.70
2018-07-15T21:22:50.029Z,99802.53
2018-07-15T21:25:16.107Z,99806.94
2018-07-15T21:27:42.148Z,99802.85
2018-07-15T21:30:08.316Z,99803.02
2018-07-15T21:32:34.728Z,99801.84
2018-07-15T21:35:00.817Z,99798.43
2018-07-15T21:37:26.923Z,99800.45
2018-07-15T21:39:54.363Z,99801.05
2018-07-15T21:42:20.450Z,99804.16
2018-07-15T21:44:46.497Z,99808.63
2018-07-15T21:47:12.494Z,99805.54
2018-07-15T21:49:43.316Z,99809.27
2018-07-15T21:52:09.454Z,99807.36
2018-07-15T21:54:38.811Z,99809.33
2018-07-15T21:57:09.781Z,99815.23
2018-07-15T22:05:02.145Z,99813.09
2018-07-15T22:10:04.173Z,99812.34
2018-07-15T22:30:19.660Z,99809.35
2018-07-15T22:55:18.593Z,99822.38
2018-07-15T23:10:43.726Z,99827.53
2018-07-15T23:13:16.039Z,99825.89
2018-07-15T23:15:48.129Z,99821.52
2018-07-15T23:18:17.404Z,99821.14
2018-07-15T23:20:47.532Z,99821.11
2018-07-15T23:25:52.907Z,99817.53
2018-07-15T23:28:19.324Z,99816.73
2018-07-15T23:30:49.689Z,99817.98
2018-07-15T23:33:15.974Z,99822.25
2018-07-15T23:35:53.133Z,99826.45
2018-07-15T23:38:20.103Z,99824.86
2018-07-15T23:40:48.991Z,99821.81
2018-07-15T23:43:19.654Z,99814.61
2018-07-15T23:45:52.082Z,99810.54
2018-07-15T23:48:21.427Z,99815.14
2018-07-15T23:50:48.782Z,99813.05
2018-07-15T23:55:48.493Z,99813.57
